Flight Track Log - Related Links

Times and Time Zones

All times are in EDT time to prevent confusion due to time zone crossing. See the KFS724 flight status page for this flight to view local times or setup timezone preferences in your user account.

Time Position Orientation Groundspeed Altitude Reporting Facility
EDT Latitude Longitude Course Direction KTS MPH feet Rate Location/Type
Wed 01:56:24 AM 33.6500 -84.3833 51° Northeast 167 192 2,200  Level Atlanta TRACON
Wed 01:57:24 AM 33.6833 -84.3333 51° Northeast 229 264 3,900 1,950 Climbing Atlanta TRACON
Wed 01:58:24 AM 33.7167 -84.2667 59° Northeast 273 314 6,100 2,450 Climbing Atlanta TRACON
Wed 01:59:24 AM 33.7833 -84.3000 337° Northwest 276 318 8,800 2,200 Climbing Atlanta TRACON
Wed 02:00:24 AM 33.7833 -84.3833 270° West 291 335 10,500 1,600 Climbing Atlanta TRACON
Wed 02:01:24 AM 33.7667 -84.5000 260° West 347 399 12,000 1,700 Climbing Atlanta TRACON
Wed 02:02:24 AM 33.7667 -84.6167 270° West 359 413 13,900 1,188 Climbing Atlanta TRACON
Wed 02:04:41 AM 33.7431 -84.9106 265° West 398 458 15,900 1,553 Climbing Atlanta Center
Wed 02:05:41 AM 33.7381 -85.0456 267° West 412 474 19,000 2,550 Climbing Atlanta Center
Wed 02:06:41 AM 33.7369 -85.1778 269° West 399 459 21,000 1,850 Climbing Atlanta Center
Wed 02:07:41 AM 33.7333 -85.3153 268° West 404 465 22,700 1,750 Climbing Atlanta Center
Wed 02:08:41 AM 33.7297 -85.4475 268° West 404 465 24,500 1,500 Climbing Atlanta Center
Wed 02:09:41 AM 33.7242 -85.5800 267° West 404 465 25,700 950 Climbing Atlanta Center
Wed 02:10:41 AM 33.7203 -85.7022 268° West 404 465 26,400 950 Climbing Atlanta Center
Wed 02:11:41 AM 33.7144 -85.8369 267° West 404 465 27,600 1,200 Climbing Atlanta Center
Wed 02:12:41 AM 33.7081 -85.9717 267° West 404 465 28,800 1,100 Climbing Atlanta Center
Wed 02:13:41 AM 33.7039 -86.1114 268° West 404 465 29,800 1,000 Climbing Atlanta Center
Wed 02:14:41 AM 33.6972 -86.2461 267° West 404 465 30,800 1,000 Climbing Atlanta Center
Wed 02:15:41 AM 33.6906 -86.3831 267° West 409 471 31,800 1,100 Climbing Atlanta Center
Wed 02:16:41 AM 33.6858 -86.5153 268° West 409 471 33,000 1,100 Climbing Atlanta Center
Wed 02:17:41 AM 33.6811 -86.6450 268° West 402 463 34,000 500 Climbing Atlanta Center
Wed 02:18:41 AM 33.6761 -86.7772 267° West 402 463 34,000  Level Atlanta Center
Wed 02:19:41 AM 33.6689 -86.9092 266° West 402 463 34,000  Level Atlanta Center
Wed 02:20:41 AM 33.6556 -87.0361 263° West 402 463 34,000  Level Atlanta Center
Wed 02:21:41 AM 33.6397 -87.1653 262° West 402 463 34,000  Level Atlanta Center
Wed 02:24:09 AM 33.6050 -87.4814 263° West 385 443 34,000  Level Memphis Center
Wed 02:25:09 AM 33.5892 -87.6042 261° West 385 443 34,000  Level Memphis Center
Wed 02:26:09 AM 33.5772 -87.7292 263° West 385 443 34,000  Level Memphis Center
Wed 02:27:09 AM 33.5631 -87.8519 262° West 385 443 34,000  Level Memphis Center
Wed 02:28:09 AM 33.5486 -87.9744 262° West 385 443 34,000  Level Memphis Center
Wed 02:29:09 AM 33.5344 -88.0994 262° West 385 443 34,000  Level Memphis Center
Wed 02:30:09 AM 33.5222 -88.2392 264° West 385 443 34,000  Level Memphis Center
Wed 02:31:09 AM 33.5075 -88.3667 262° West 390 449 34,000  Level Memphis Center
Wed 02:32:09 AM 33.4908 -88.4917 261° West 390 449 34,000  Level Memphis Center
Wed 02:33:09 AM 33.4781 -88.6214 263° West 390 449 34,000  Level Memphis Center
Wed 02:34:09 AM 33.4608 -88.7461 261° West 390 449 34,000  Level Memphis Center
Wed 02:35:09 AM 33.4458 -88.8633 261° West 390 449 34,000  Level Memphis Center
Wed 02:36:09 AM 33.4325 -88.9881 263° West 395 455 34,000  Level Memphis Center
Wed 02:37:09 AM 33.4172 -89.1178 262° West 390 449 34,000  Level Memphis Center
Wed 02:38:09 AM 33.4039 -89.2450 263° West 390 449 34,000  Level Memphis Center
Wed 02:39:09 AM 33.3881 -89.3719 262° West 390 449 34,000  Level Memphis Center
Wed 02:40:09 AM 33.3725 -89.4992 262° West 390 449 34,000  Level Memphis Center
Wed 02:41:09 AM 33.3567 -89.6261 262° West 390 449 34,000  Level Memphis Center
Wed 02:42:09 AM 33.3406 -89.7556 262° West 390 449 34,000  Level Memphis Center
Wed 02:43:09 AM 33.3244 -89.8825 261° West 390 449 34,000  Level Memphis Center
Wed 02:44:09 AM 33.3103 -90.0117 263° West 390 449 34,000  Level Memphis Center
Wed 02:45:09 AM 33.2917 -90.1533 261° West 390 449 34,000  Level Memphis Center
Wed 02:46:09 AM 33.2753 -90.2803 261° West 390 449 34,000  Level Memphis Center
Wed 02:47:09 AM 33.2586 -90.4044 261° West 390 449 34,000  Level Memphis Center
Wed 02:48:09 AM 33.2397 -90.5286 260° West 390 449 34,000  Level Memphis Center
Wed 02:49:09 AM 33.2269 -90.6553 263° West 390 449 34,000  Level Memphis Center
Wed 02:50:09 AM 33.2097 -90.7769 260° West 390 449 34,000  Level Memphis Center
Wed 02:51:09 AM 33.1947 -90.8983 262° West 390 449 34,000  Level Memphis Center
Wed 02:52:09 AM 33.1775 -91.0200 260° West 385 443 34,000  Level Memphis Center
Wed 02:53:09 AM 33.1600 -91.1464 261° West 385 443 34,000  Level Memphis Center
Wed 02:54:09 AM 33.1406 -91.2678 259° West 385 443 34,000  Level Memphis Center
Wed 02:56:18 AM 33.1108 -91.5261 262° West 385 443 34,000  Level Fort Center
Wed 02:57:18 AM 33.0936 -91.6464 260° West 385 443 34,000  Level Fort Center
Wed 02:58:18 AM 33.0783 -91.7739 262° West 380 437 34,000  Level Fort Center
Wed 02:59:18 AM 33.0664 -91.8786 262° West 374 430 34,000  Level Fort Center
Wed 03:00:18 AM 33.0508 -91.9986 261° West 369 425 34,000  Level Fort Center
Wed 03:01:18 AM 33.0286 -92.1189 258° West 374 430 34,000  Level Fort Center
Wed 03:02:18 AM 33.0128 -92.2386 261° West 374 430 34,000  Level Fort Center
Wed 03:03:18 AM 32.9969 -92.3583 261° West 374 430 34,000  Level Fort Center
Wed 03:04:18 AM 32.9767 -92.4783 259° West 374 430 34,000  Level Fort Center
Wed 03:05:18 AM 32.9583 -92.5981 260° West 374 430 34,000  Level Fort Center
Wed 03:06:18 AM 32.9419 -92.7178 261° West 374 430 34,000  Level Fort Center
Wed 03:07:18 AM 32.9233 -92.8375 260° West 374 430 34,000  Level Fort Center
Wed 03:08:18 AM 32.9047 -92.9572 260° West 374 430 34,000  Level Fort Center
Wed 03:09:18 AM 32.9028 -93.0786 269° West 374 430 34,000  Level Fort Center
Wed 03:10:18 AM 32.8967 -93.2100 267° West 374 430 34,000  Level Fort Center
Wed 03:11:18 AM 32.8906 -93.3339 267° West 369 425 34,000  Level Fort Center
Wed 03:12:18 AM 32.8858 -93.4553 267° West 369 425 34,000  Level Fort Center
Wed 03:13:18 AM 32.8794 -93.5794 267° West 369 425 34,000  Level Fort Center
Wed 03:14:18 AM 32.8767 -93.7006 268° West 369 425 34,000  Level Fort Center
Wed 03:15:18 AM 32.8697 -93.8222 266° West 369 425 34,000  Level Fort Center
Wed 03:16:18 AM 32.8650 -93.9461 267° West 369 425 34,000  Level Fort Center
Wed 03:17:18 AM 32.8600 -94.0675 267° West 369 425 34,000  Level Fort Center
Wed 03:18:18 AM 32.8525 -94.1864 266° West 369 425 34,000  Level Fort Center
Wed 03:19:18 AM 32.8472 -94.3078 267° West 369 425 34,000  Level Fort Center
Wed 03:20:18 AM 32.8439 -94.4264 268° West 369 425 34,000  Level Fort Center
Wed 03:21:18 AM 32.8383 -94.5478 267° West 369 425 34,000  Level Fort Center
Wed 03:22:18 AM 32.8494 -94.6686 276° West 369 425 34,000  Level Fort Center
Wed 03:23:18 AM 32.8686 -94.7867 281° West 364 419 34,000  Level Fort Center
Wed 03:24:18 AM 32.8836 -94.9075 278° West 369 425 34,000  Level Fort Center
Wed 03:25:18 AM 32.9089 -95.0281 284° West 369 425 34,000  Level Fort Center
Wed 03:26:18 AM 32.9444 -95.1458 290° West 369 425 34,000 350 Level Fort Center
Wed 03:27:18 AM 32.9692 -95.2394 287° West 374 430 34,700 950 Climbing Fort Center
Wed 03:28:18 AM 33.0089 -95.3672 290° West 381 438 35,900 650 Climbing Fort Center
Wed 03:29:18 AM 33.0294 -95.4833 282° West 374 430 36,000 50 Climbing Fort Center
Wed 03:30:18 AM 33.0397 -95.6044 276° West 368 423 36,000  Level Fort Center
Wed 03:31:18 AM 33.0225 -95.7211 260° West 363 418 36,000  Level Fort Center
Wed 03:32:18 AM 33.0094 -95.8428 263° West 368 423 36,000  Level Fort Center
Wed 03:33:18 AM 32.9983 -95.9544 263° West 363 418 36,000  Level Fort Center
Wed 03:34:18 AM 32.9828 -96.0736 261° West 363 418 36,000  Level Fort Center
Wed 03:35:18 AM 32.9694 -96.1950 263° West 368 423 36,000  Level Fort Center
Wed 03:36:18 AM 32.9539 -96.3242 262° West 368 423 36,000  Level Fort Center
Wed 03:37:18 AM 32.9403 -96.4381 262° West 368 423 36,000  Level Fort Center
Wed 03:38:18 AM 32.9244 -96.5597 261° West 368 423 36,000  Level Fort Center
Wed 03:39:18 AM 32.9106 -96.6761 262° West 368 423 36,000  Level Fort Center
Wed 03:40:18 AM 32.8967 -96.7950 262° West 374 430 36,000  Level Fort Center
Wed 03:41:18 AM 32.8825 -96.9161 262° West 374 430 36,000  Level Fort Center
Wed 03:42:18 AM 32.8683 -97.0250 261° West 374 430 36,000  Level Fort Center
Wed 03:43:18 AM 32.8519 -97.1539 261° West 369 425 36,000  Level Fort Center
Wed 03:44:18 AM 32.8375 -97.2650 261° West 374 430 36,000  Level Fort Center
Wed 03:45:18 AM 32.8186 -97.3986 260° West 379 436 36,000  Level Fort Center
Wed 03:46:18 AM 32.8061 -97.5147 263° West 367 422 36,000  Level Fort Center
Wed 03:47:18 AM 32.7914 -97.6333 262° West 367 422 36,000  Level Fort Center
Wed 03:48:18 AM 32.7764 -97.7544 262° West 367 422 36,000  Level Fort Center
Wed 03:49:18 AM 32.7614 -97.8728 261° West 367 422 36,000  Level Fort Center
Wed 03:50:18 AM 32.7444 -97.9939 261° West 367 422 36,000  Level Fort Center
Wed 03:51:18 AM 32.7292 -98.1147 261° West 367 422 36,000  Level Fort Center
Wed 03:52:18 AM 32.7136 -98.2356 261° West 372 428 36,000  Level Fort Center
Wed 03:53:18 AM 32.6983 -98.3417 260° West 372 428 36,000  Level Fort Center
Wed 03:54:18 AM 32.6786 -98.4722 260° West 372 428 36,000  Level Fort Center
Wed 03:55:18 AM 32.6628 -98.5906 261° West 366 421 36,000  Level Fort Center
Wed 03:56:18 AM 32.6469 -98.7111 261° West 372 428 36,000  Level Fort Center
Wed 03:57:18 AM 32.6269 -98.8292 259° West 372 428 36,000  Level Fort Center
Wed 03:58:18 AM 32.6089 -98.9475 260° West 372 428 36,000  Level Fort Center
Wed 03:59:18 AM 32.5928 -99.0681 261° West 372 428 36,000  Level Fort Center
Wed 04:00:18 AM 32.5703 -99.1883 258° West 372 428 36,000  Level Fort Center
Wed 04:01:18 AM 32.5539 -99.3064 261° West 372 428 36,000  Level Fort Center
Wed 04:02:18 AM 32.5478 -99.4244 267° West 372 428 36,000  Level Fort Center
Wed 04:03:18 AM 32.5500 -99.5503 271° West 372 428 36,000  Level Fort Center
Wed 04:04:18 AM 32.5500 -99.6711 270° West 367 422 36,000  Level Fort Center
Wed 04:05:18 AM 32.5497 -99.7942 270° West 367 422 36,000  Level Fort Center
Wed 04:06:18 AM 32.5494 -99.9200 270° West 377 434 36,000  Level Fort Center
Wed 04:07:18 AM 32.5514 -100.0333 271° West 383 441 36,000  Level Fort Center
Wed 04:08:18 AM 32.5528 -100.1567 271° West 383 441 36,000  Level Fort Center
Wed 04:09:18 AM 32.5542 -100.2797 271° West 383 441 36,000  Level Fort Center
Wed 04:10:19 AM 32.5533 -100.4031 270° West 383 441 36,000  Level Fort Center
Wed 04:11:18 AM 32.5547 -100.5239 271° West 383 441 36,000  Level Fort Center
Wed 04:12:18 AM 32.5536 -100.6519 269° West 383 441 36,000  Level Fort Center
Wed 04:13:18 AM 32.5544 -100.7753 270° West 383 441 36,000  Level Fort Center
Wed 04:14:18 AM 32.5533 -100.8958 269° West 378 435 36,000  Level Fort Center
Wed 04:15:18 AM 32.5539 -101.0217 270° West 378 435 36,000  Level Fort Center
Wed 04:16:18 AM 32.5544 -101.1472 270° West 384 442 36,000  Level Fort Center
Wed 04:17:18 AM 32.5506 -101.2703 268° West 384 442 36,000  Level Fort Center
Wed 04:18:18 AM 32.5489 -101.3936 269° West 384 442 36,000  Level Fort Center
Wed 04:19:18 AM 32.5511 -101.5169 271° West 384 442 36,000  Level Fort Center
Wed 04:20:18 AM 32.5492 -101.6425 269° West 384 442 36,000  Level Fort Center
Wed 04:21:18 AM 32.5492 -101.7656 270° West 384 442 36,000  Level Fort Center
Wed 04:22:18 AM 32.5469 -101.8886 269° West 384 442 36,000  Level Fort Center
Wed 04:23:18 AM 32.5444 -102.0119 269° West 384 442 36,000  Level Fort Center
Wed 04:24:18 AM 32.5442 -102.1325 270° West 384 442 36,000  Level Fort Center
Wed 04:25:18 AM 32.5433 -102.2631 270° West 384 442 36,000  Level Fort Center
Wed 04:26:18 AM 32.5428 -102.3814 270° West 384 442 36,000  Level Fort Center
Wed 04:27:18 AM 32.5378 -102.5092 267° West 384 442 36,000  Level Fort Center
Wed 04:28:18 AM 32.5364 -102.6422 269° West 384 442 36,000  Level Fort Center
Wed 04:29:18 AM 32.5356 -102.7603 270° West 379 436 36,000  Level Fort Center
Wed 04:31:25 AM 32.5289 -102.9922 268° West 369 425 36,000  Level Albuquerque Center
Wed 04:32:25 AM 32.5247 -103.1378 268° West 368 423 36,000  Level Albuquerque Center
Wed 04:33:25 AM 32.5231 -103.2589 269° West 369 425 36,000  Level Albuquerque Center
Wed 04:34:25 AM 32.5194 -103.3803 268° West 369 425 36,000  Level Albuquerque Center
Wed 04:35:26 AM 32.5161 -103.5017 268° West 370 426 36,000  Level Albuquerque Center
Wed 04:36:26 AM 32.5133 -103.6233 268° West 371 427 36,000  Level Albuquerque Center
Wed 04:37:26 AM 32.5092 -103.7467 268° West 372 428 36,000  Level Albuquerque Center
Wed 04:38:26 AM 32.5067 -103.8678 269° West 370 426 36,000  Level Albuquerque Center
Wed 04:39:26 AM 32.5028 -103.9908 268° West 373 429 36,000  Level Albuquerque Center
Wed 04:40:26 AM 32.5014 -104.1189 269° West 373 429 36,000  Level Albuquerque Center
Wed 04:41:26 AM 32.4969 -104.2439 268° West 378 435 36,000  Level Albuquerque Center
Wed 04:42:26 AM 32.4931 -104.3681 268° West 379 436 36,000  Level Albuquerque Center
Wed 04:43:27 AM 32.4894 -104.4942 268° West 382 440 36,000  Level Albuquerque Center
Wed 04:44:27 AM 32.4847 -104.6197 267° West 382 440 36,000  Level Albuquerque Center
Wed 04:45:27 AM 32.4797 -104.7411 267° West 374 430 36,000  Level Albuquerque Center
Wed 04:46:27 AM 32.4747 -104.8658 267° West 377 434 36,000  Level Albuquerque Center
Wed 04:47:27 AM 32.4714 -104.9903 268° West 383 441 36,000  Level Albuquerque Center
Wed 04:48:27 AM 32.4675 -105.1197 268° West 389 448 36,000  Level Albuquerque Center
Wed 04:49:28 AM 32.4625 -105.2436 267° West 382 440 36,000  Level Albuquerque Center
Wed 04:50:28 AM 32.4572 -105.3689 267° West 382 440 36,000  Level Albuquerque Center
Wed 04:51:28 AM 32.4519 -105.4958 267° West 385 443 36,000  Level Albuquerque Center
Wed 04:52:28 AM 32.4469 -105.6222 267° West 386 444 36,000  Level Albuquerque Center
Wed 04:53:28 AM 32.4417 -105.7483 267° West 386 444 36,000  Level Albuquerque Center
Wed 04:54:28 AM 32.4364 -105.8706 267° West 390 449 36,000  Level Albuquerque Center
Wed 04:55:28 AM 32.4306 -106.0028 267° West 386 444 36,000  Level Albuquerque Center
Wed 04:56:29 AM 32.4253 -106.1289 267° West 387 445 36,000 -50 Level Albuquerque Center
Wed 04:57:29 AM 32.4194 -106.2522 267° West 391 450 35,900  Descending Albuquerque Center
Wed 04:58:29 AM 32.4139 -106.3808 267° West 392 451 36,000 50 Climbing Albuquerque Center
Wed 04:59:29 AM 32.4078 -106.5061 267° West 384 442 36,000  Level Albuquerque Center
Wed 05:00:29 AM 32.4019 -106.6319 267° West 384 442 36,000  Level Albuquerque Center
Wed 05:01:29 AM 32.3956 -106.7550 267° West 376 433 36,000  Level Albuquerque Center
Wed 05:02:29 AM 32.3881 -106.8881 266° West 370 426 36,000  Level Albuquerque Center
Wed 05:03:30 AM 32.3842 -107.0086 268° West 367 422 36,000  Level Albuquerque Center
Wed 05:04:30 AM 32.3775 -107.1292 266° West 368 423 36,000  Level Albuquerque Center
Wed 05:05:30 AM 32.3725 -107.2294 267° West 372 428 36,000  Level Albuquerque Center
Wed 05:06:30 AM 32.3619 -107.3744 265° West 373 429 36,000  Level Albuquerque Center
Wed 05:07:30 AM 32.3556 -107.4939 266° West 369 425 36,000  Level Albuquerque Center
Wed 05:08:30 AM 32.3500 -107.6092 267° West 365 420 36,000  Level Albuquerque Center
Wed 05:09:30 AM 32.3428 -107.7294 266° West 365 420 36,000  Level Albuquerque Center
Wed 05:10:31 AM 32.3353 -107.8494 266° West 366 421 36,000  Level Albuquerque Center
Wed 05:11:31 AM 32.3275 -107.9689 266° West 365 420 36,000  Level Albuquerque Center
Wed 05:12:31 AM 32.3222 -108.0881 267° West 365 420 36,000  Level Albuquerque Center
Wed 05:13:31 AM 32.3147 -108.2069 266° West 365 420 36,000  Level Albuquerque Center
Wed 05:14:31 AM 32.3072 -108.3272 266° West 365 420 36,000  Level Albuquerque Center
Wed 05:15:31 AM 32.2997 -108.4464 266° West 366 421 36,000  Level Albuquerque Center
Wed 05:16:31 AM 32.2925 -108.5636 266° West 367 422 36,000  Level Albuquerque Center
Wed 05:17:32 AM 32.2842 -108.6831 265° West 367 422 36,000  Level Albuquerque Center
Wed 05:18:32 AM 32.2761 -108.8017 265° West 366 421 36,000  Level Albuquerque Center
Wed 05:19:32 AM 32.2681 -108.9217 265° West 367 422 36,000 -200 Level Albuquerque Center
Wed 05:20:32 AM 32.2600 -109.0414 265° West 368 423 35,600 -1,250 Descending Albuquerque Center
Wed 05:21:32 AM 32.2511 -109.1703 265° West 386 444 33,500 -2,000 Descending Albuquerque Center
Wed 05:22:32 AM 32.2411 -109.3103 265° West 421 484 31,600 -2,300 Descending Albuquerque Center
Wed 05:23:32 AM 32.2311 -109.4489 265° West 427 491 28,900 -2,926 Descending Albuquerque Center
Wed 05:24:33 AM 32.2214 -109.5797 265° West 411 473 25,700 -2,727 Descending Albuquerque Center
Wed 05:25:33 AM 32.2111 -109.7131 265° West 410 472 23,400 -2,100 Descending Albuquerque Center
Wed 05:26:33 AM 32.2003 -109.8503 265° West 420 483 21,500 -2,050 Descending Albuquerque Center
Wed 05:27:33 AM 32.1908 -109.9872 265° West 421 484 19,300 -2,316 Descending Albuquerque Center
Wed 05:28:27 AM 32.1808 -110.1297 265° West 416 479 17,100 -2,450 Descending Albuquerque Center
Wed 05:29:33 AM 32.1711 -110.2469 264° West 385 443 14,400 -2,227 Descending Albuquerque Center
Wed 05:30:04 AM 32.1636 -110.3211 263° West 359 413 13,500 -1,800 Descending Albuquerque Center
Wed 05:30:33 AM 32.1625 -110.3750 269° West 350 403 12,600 -1,869 Descending Albuquerque Center
Wed 05:31:05 AM 32.1575 -110.4289 264° West 336 387 11,600 -1,475 Descending Albuquerque Center
Wed 05:31:34 AM 32.1639 -110.4797 278° West 328 377 11,100 -600 Descending Albuquerque Center
Wed 05:32:05 AM 32.1703 -110.5361 278° West 339 390 11,000 -100 Descending Albuquerque Center
Wed 05:32:34 AM 32.1797 -110.5878 282° West 334 384 11,000 -472 Level Albuquerque Center
Wed 05:33:34 AM 32.1989 -110.6708 285° West 299 344 10,300 -1,300 Descending Albuquerque Center
Wed 05:34:34 AM 32.2181 -110.7617 284° West 281 323 8,400 -1,700 Descending Albuquerque Center
Wed 05:35:34 AM 32.2286 -110.8467 278° West 269 310 6,900 -1,400 Descending Albuquerque Center
Wed 05:36:34 AM 32.2367 -110.9300 277° West 263 303 5,600 -1,041 Descending Albuquerque Center
Wed 05:37:35 AM 32.2100 -110.9842 240° Southwest 224 258 4,800 -884 Descending Albuquerque Center
Wed 05:38:09 AM 32.1847 -111.0008 209° Southwest 180 207 4,200 -800 Descending Albuquerque Center
Wed 05:38:35 AM 32.1736 -111.0028 188° South 203 234 4,000 -1,000 Descending Albuquerque Center
Wed 05:39:09 AM 32.1483 -110.9781 140° Southeast 149 171 3,200 -1,412 Descending Albuquerque Center
Wed 05:41:00 AM 32.1161 -110.9410 157° South  Level Estimated

Login

Don't have an account? Register now (free) for customized features, flight alerts, and more!